createdAt,value
2022-10-22T00:00:25.963Z,1002.2
2022-10-22T00:01:29.329Z,1002.2
2022-10-22T00:02:32.535Z,1002.3
2022-10-22T00:03:35.784Z,1002.2
2022-10-22T00:04:38.346Z,1002.3
2022-10-22T00:05:41.584Z,1002.2
2022-10-22T00:06:45.054Z,1002.2
2022-10-22T00:07:48.215Z,1002.2
2022-10-22T00:08:50.728Z,1002.2
2022-10-22T00:09:54.193Z,1002.2
2022-10-22T00:10:57.768Z,1002.2
2022-10-22T00:12:00.343Z,1002.2
2022-10-22T00:13:03.195Z,1002.2
2022-10-22T00:14:06.617Z,1002.3
2022-10-22T00:15:09.324Z,1002.3
2022-10-22T00:16:12.104Z,1002.3
2022-10-22T00:17:14.542Z,1002.3
2022-10-22T00:18:17.912Z,1002.3
2022-10-22T00:19:20.983Z,1002.3
2022-10-22T00:20:24.051Z,1002.4
2022-10-22T00:21:26.476Z,1002.4
2022-10-22T00:22:29.864Z,1002.3
2022-10-22T00:23:33.715Z,1002.3
2022-10-22T00:24:36.849Z,1002.4
2022-10-22T00:25:39.593Z,1002.4
2022-10-22T00:26:41.762Z,1002.4
2022-10-22T00:27:44.557Z,1002.4
2022-10-22T00:28:47.746Z,1002.4
2022-10-22T00:29:50.614Z,1002.4
2022-10-22T00:30:53.517Z,1002.4
2022-10-22T00:31:56.943Z,1002.4
2022-10-22T00:32:59.678Z,1002.4
2022-10-22T00:34:02.764Z,1002.4
2022-10-22T00:35:06.305Z,1002.4
2022-10-22T00:36:09.118Z,1002.4
2022-10-22T00:37:12.224Z,1002.4
2022-10-22T00:38:15.657Z,1002.4
2022-10-22T00:39:18.839Z,1002.4
2022-10-22T00:40:22.133Z,1002.4
2022-10-22T00:41:25.003Z,1002.4
2022-10-22T00:42:27.788Z,1002.4
2022-10-22T00:43:31.132Z,1002.4
2022-10-22T00:44:34.573Z,1002.4
2022-10-22T00:45:37.879Z,1002.4
2022-10-22T00:46:41.029Z,1002.4
2022-10-22T00:47:44.861Z,1002.4
2022-10-22T00:48:48.131Z,1002.4
2022-10-22T00:49:51.165Z,1002.4
2022-10-22T00:50:54.070Z,1002.4
2022-10-22T00:51:57.444Z,1002.4
2022-10-22T00:53:00.409Z,1002.4
2022-10-22T00:54:03.501Z,1002.4
2022-10-22T00:55:06.795Z,1002.5
2022-10-22T00:56:09.651Z,1002.5
2022-10-22T00:57:12.807Z,1002.5
2022-10-22T00:58:15.330Z,1002.5
2022-10-22T00:59:17.927Z,1002.5
2022-10-22T01:00:21.723Z,1002.5
2022-10-22T01:01:24.663Z,1002.5
2022-10-22T01:02:27.705Z,1002.5
2022-10-22T01:03:30.975Z,1002.5
2022-10-22T01:04:33.772Z,1002.5
2022-10-22T01:05:36.643Z,1002.4
2022-10-22T01:06:40.496Z,1002.3
2022-10-22T01:07:43.020Z,1002.3
2022-10-22T01:08:45.907Z,1002.3
2022-10-22T01:09:50.652Z,1002.3
2022-10-22T01:10:54.553Z,1002.2
2022-10-22T01:11:58.143Z,1002.1
2022-10-22T01:13:01.595Z,1002.1
2022-10-22T01:14:04.925Z,1002
2022-10-22T01:15:07.713Z,1002
2022-10-22T01:16:11.582Z,1002
2022-10-22T01:17:15.032Z,1002
2022-10-22T01:18:18.044Z,1002
2022-10-22T01:19:21.391Z,1002
2022-10-22T01:20:24.760Z,1002
2022-10-22T01:21:27.271Z,1002.1
2022-10-22T01:22:30.158Z,1002.1
2022-10-22T01:23:32.872Z,1002.2
2022-10-22T01:24:35.508Z,1002.2
2022-10-22T01:25:39.266Z,1002.2
2022-10-22T01:26:42.765Z,1002.3
2022-10-22T01:27:45.351Z,1002.2
2022-10-22T01:28:48.737Z,1002.3
2022-10-22T01:29:51.515Z,1002.2
2022-10-22T01:30:54.583Z,1002.3
2022-10-22T01:31:57.273Z,1002.2
2022-10-22T01:33:00.359Z,1002.3
2022-10-22T01:34:02.127Z,1002.3
2022-10-22T01:35:05.566Z,1002.3
2022-10-22T01:36:09.161Z,1002.2
2022-10-22T01:37:11.392Z,1002.3
2022-10-22T01:38:14.456Z,1002.3
2022-10-22T01:39:17.232Z,1002.3
2022-10-22T01:40:20.877Z,1002.4
2022-10-22T01:41:23.970Z,1002.4
2022-10-22T01:42:27.476Z,1002.4
2022-10-22T01:43:30.224Z,1002.4
2022-10-22T01:44:33.141Z,1002.4
2022-10-22T01:45:38.053Z,1002.4
2022-10-22T01:46:41.162Z,1002.4
2022-10-22T01:47:44.480Z,1002.3
2022-10-22T01:48:48.078Z,1002.3
2022-10-22T01:49:50.956Z,1002.3
2022-10-22T01:50:53.197Z,1002.4
2022-10-22T01:51:56.607Z,1002.4
2022-10-22T01:52:59.592Z,1002.4
2022-10-22T01:54:02.743Z,1002.4
2022-10-22T01:55:05.543Z,1002.4
2022-10-22T01:56:08.991Z,1002.4
2022-10-22T01:57:12.660Z,1002.4
2022-10-22T01:58:16.442Z,1002.4
2022-10-22T01:59:19.938Z,1002.5
2022-10-22T02:00:23.387Z,1002.5
2022-10-22T02:01:26.273Z,1002.5
2022-10-22T02:02:29.339Z,1002.6
2022-10-22T02:03:32.411Z,1002.6
2022-10-22T02:04:35.558Z,1002.6
2022-10-22T02:05:38.993Z,1002.6
2022-10-22T02:06:41.504Z,1002.6
2022-10-22T02:07:44.655Z,1002.6
2022-10-22T02:08:47.696Z,1002.7
2022-10-22T02:09:50.690Z,1002.7
2022-10-22T02:10:55.246Z,1002.6
2022-10-22T02:11:58.257Z,1002.7
2022-10-22T02:13:01.871Z,1002.6
2022-10-22T02:14:05.408Z,1002.6
2022-10-22T02:15:09.038Z,1002.6
2022-10-22T02:16:12.304Z,1002.6
2022-10-22T02:17:15.294Z,1002.5
2022-10-22T02:18:18.359Z,1002.5
2022-10-22T02:19:21.351Z,1002.5
2022-10-22T02:20:24.066Z,1002.5
2022-10-22T02:21:27.056Z,1002.5
2022-10-22T02:22:29.909Z,1002.4
2022-10-22T02:23:33.003Z,1002.5
2022-10-22T02:24:35.791Z,1002.4
2022-10-22T02:25:38.103Z,1002.4
2022-10-22T02:26:41.456Z,1002.4
2022-10-22T02:27:44.326Z,1002.4
2022-10-22T02:28:47.872Z,1002.5
2022-10-22T02:29:51.374Z,1002.5
2022-10-22T02:30:54.829Z,1002.4
2022-10-22T02:31:57.977Z,1002.4
2022-10-22T02:33:01.390Z,1002.4
2022-10-22T02:34:03.904Z,1002.5
2022-10-22T02:35:07.282Z,1002.5
2022-10-22T02:36:09.989Z,1002.5
2022-10-22T02:37:12.421Z,1002.5
2022-10-22T02:38:15.233Z,1002.5
2022-10-22T02:40:20.340Z,1002.5
2022-10-22T02:41:23.407Z,1002.5
2022-10-22T02:42:25.843Z,1002.5
2022-10-22T02:43:28.646Z,1002.5
2022-10-22T02:44:32.009Z,1002.5
2022-10-22T02:45:35.265Z,1002.5
2022-10-22T02:46:38.942Z,1002.5
2022-10-22T02:47:42.293Z,1002.5
2022-10-22T02:48:45.091Z,1002.5
2022-10-22T02:49:47.923Z,1002.5
2022-10-22T02:50:51.300Z,1002.6
2022-10-22T02:51:54.082Z,1002.6
2022-10-22T02:52:57.162Z,1002.6
2022-10-22T02:54:00.030Z,1002.6
2022-10-22T02:55:03.108Z,1002.6
2022-10-22T02:56:06.168Z,1002.6
2022-10-22T02:57:09.044Z,1002.6
2022-10-22T02:58:12.565Z,1002.7
2022-10-22T02:59:15.184Z,1002.7
2022-10-22T03:00:18.285Z,1002.7
2022-10-22T03:01:21.836Z,1002.7
2022-10-22T03:02:25.281Z,1002.6
2022-10-22T03:03:28.416Z,1002.7
2022-10-22T03:04:31.484Z,1002.7
2022-10-22T03:05:34.914Z,1002.6
2022-10-22T03:06:37.231Z,1002.7
2022-10-22T03:07:40.870Z,1002.7
2022-10-22T03:08:45.446Z,1002.7
2022-10-22T03:09:48.830Z,1002.6
2022-10-22T03:10:51.337Z,1002.6
2022-10-22T03:11:54.938Z,1002.6
2022-10-22T03:12:57.723Z,1002.6
2022-10-22T03:14:00.864Z,1002.6
2022-10-22T03:15:04.006Z,1002.6
2022-10-22T03:16:06.827Z,1002.6
2022-10-22T03:17:10.402Z,1002.7
2022-10-22T03:18:13.535Z,1002.7
2022-10-22T03:19:16.606Z,1002.7
2022-10-22T03:20:19.673Z,1002.7
2022-10-22T03:21:22.629Z,1002.7
2022-10-22T03:22:26.296Z,1002.7
2022-10-22T03:23:29.286Z,1002.7
2022-10-22T03:24:32.077Z,1002.7
2022-10-22T03:25:35.501Z,1002.7
2022-10-22T03:26:38.948Z,1002.7
2022-10-22T03:27:41.704Z,1002.7
2022-10-22T03:28:45.568Z,1002.7
2022-10-22T03:29:48.962Z,1002.7
2022-10-22T03:30:52.053Z,1002.7
2022-10-22T03:31:55.490Z,1002.7
2022-10-22T03:32:58.992Z,1002.7
2022-10-22T03:34:01.645Z,1002.7
2022-10-22T03:35:05.073Z,1002.7
2022-10-22T03:36:08.208Z,1002.7
2022-10-22T03:37:11.283Z,1002.7
2022-10-22T03:38:13.724Z,1002.7
2022-10-22T03:39:16.052Z,1002.6
2022-10-22T03:40:18.212Z,1002.6
2022-10-22T03:41:21.271Z,1002.6
2022-10-22T03:42:25.321Z,1002.7
2022-10-22T03:43:28.691Z,1002.7
2022-10-22T03:44:32.142Z,1002.7
2022-10-22T03:45:34.756Z,1002.6
2022-10-22T03:46:37.764Z,1002.7
2022-10-22T03:47:42.176Z,1002.7
2022-10-22T03:48:46.505Z,1002.7
2022-10-22T03:49:49.687Z,1002.7
2022-10-22T03:50:52.929Z,1002.8
2022-10-22T03:51:55.447Z,1002.8
2022-10-22T03:52:58.545Z,1002.8
2022-10-22T03:54:01.249Z,1002.8
2022-10-22T03:55:04.306Z,1002.9
2022-10-22T03:56:07.194Z,1002.9
2022-10-22T03:57:09.903Z,1002.9
2022-10-22T03:58:13.427Z,1002.9
2022-10-22T03:59:15.945Z,1002.9
2022-10-22T04:00:19.425Z,1002.9
2022-10-22T04:01:22.504Z,1002.9
2022-10-22T04:02:25.999Z,1002.9
2022-10-22T04:03:29.076Z,1002.9
2022-10-22T04:04:32.806Z,1002.9
2022-10-22T04:05:36.187Z,1002.8
2022-10-22T04:06:38.312Z,1002.8
2022-10-22T04:07:42.172Z,1002.8
2022-10-22T04:08:46.278Z,1002.8
2022-10-22T04:09:49.733Z,1002.8
2022-10-22T04:10:52.818Z,1002.8
2022-10-22T04:11:55.531Z,1002.8
2022-10-22T04:12:58.799Z,1002.8
2022-10-22T04:14:01.695Z,1002.8
2022-10-22T04:15:04.850Z,1002.8
2022-10-22T04:16:07.917Z,1002.8
2022-10-22T04:17:10.626Z,1002.8
2022-10-22T04:18:13.715Z,1002.8
2022-10-22T04:19:16.925Z,1002.8
2022-10-22T04:20:20.354Z,1002.8
2022-10-22T04:21:23.260Z,1002.8
2022-10-22T04:22:26.399Z,1002.8
2022-10-22T04:23:29.732Z,1002.8
2022-10-22T04:24:32.603Z,1002.8
2022-10-22T04:25:35.748Z,1002.8
2022-10-22T04:26:39.441Z,1002.8
2022-10-22T04:27:43.477Z,1002.9
2022-10-22T04:28:46.046Z,1002.8
2022-10-22T04:29:48.919Z,1002.8
2022-10-22T04:30:51.903Z,1002.8
2022-10-22T04:31:55.048Z,1002.8
2022-10-22T04:32:57.479Z,1002.8
2022-10-22T04:34:00.269Z,1002.8
2022-10-22T04:35:03.741Z,1002.8
2022-10-22T04:36:07.368Z,1002.8
2022-10-22T04:37:10.851Z,1002.8
2022-10-22T04:38:13.911Z,1002.7
2022-10-22T04:39:16.140Z,1002.8
2022-10-22T04:40:18.913Z,1002.8
2022-10-22T04:41:21.714Z,1002.8
2022-10-22T04:42:25.174Z,1002.8
2022-10-22T04:43:27.781Z,1002.8
2022-10-22T04:44:30.661Z,1002.8
2022-10-22T04:45:33.472Z,1002.8
2022-10-22T04:46:36.193Z,1002.8
2022-10-22T04:47:39.696Z,1002.8
2022-10-22T04:48:44.116Z,1002.7
2022-10-22T04:49:46.910Z,1002.8
2022-10-22T04:50:50.062Z,1002.8
2022-10-22T04:51:53.600Z,1002.8
2022-10-22T04:52:57.647Z,1002.8
2022-10-22T04:54:00.361Z,1002.8
2022-10-22T04:55:02.791Z,1002.8
2022-10-22T04:56:05.767Z,1002.9
2022-10-22T04:57:08.477Z,1002.8
2022-10-22T04:58:11.898Z,1002.9
2022-10-22T04:59:14.671Z,1002.9
2022-10-22T05:00:17.537Z,1002.9
2022-10-22T05:01:20.742Z,1002.9
2022-10-22T05:02:24.243Z,1002.9
2022-10-22T05:03:27.501Z,1002.9
2022-10-22T05:04:29.763Z,1002.9
2022-10-22T05:05:33.302Z,1002.9
2022-10-22T05:06:36.998Z,1002.9
2022-10-22T05:07:41.189Z,1002.9
2022-10-22T05:08:45.592Z,1002.9
2022-10-22T05:09:49.315Z,1002.9
2022-10-22T05:10:52.115Z,1002.9
2022-10-22T05:11:55.170Z,1002.9
2022-10-22T05:12:57.687Z,1002.9
2022-10-22T05:14:00.586Z,1003
2022-10-22T05:15:03.379Z,1002.9
2022-10-22T05:16:06.309Z,1002.9
2022-10-22T05:17:09.704Z,1003
2022-10-22T05:18:12.032Z,1003
2022-10-22T05:19:15.204Z,1003
2022-10-22T05:20:18.303Z,1003
2022-10-22T05:21:21.372Z,1003
2022-10-22T05:22:24.819Z,1003
2022-10-22T05:23:28.381Z,1003
2022-10-22T05:24:31.150Z,1003
2022-10-22T05:25:33.932Z,1003
2022-10-22T05:26:36.168Z,1003
2022-10-22T05:27:40.122Z,1003
2022-10-22T05:28:44.686Z,1003.1
2022-10-22T05:29:47.921Z,1003.1
2022-10-22T05:30:50.354Z,1003.2
2022-10-22T05:31:53.338Z,1003.2
2022-10-22T05:32:56.703Z,1003.2
2022-10-22T05:33:59.418Z,1003.2
2022-10-22T05:35:02.134Z,1003.2
2022-10-22T05:36:04.291Z,1003.2
2022-10-22T05:37:06.170Z,1003.2
2022-10-22T05:38:10.258Z,1003.2
2022-10-22T05:39:14.033Z,1003.2
2022-10-22T05:40:30.947Z,1003.2
2022-10-22T05:41:34.026Z,1003.2
2022-10-22T05:42:37.047Z,1003.2
2022-10-22T05:43:41.522Z,1003.3
2022-10-22T05:44:44.634Z,1003.3
2022-10-22T05:45:47.618Z,1003.3
2022-10-22T05:46:51.073Z,1003.3
2022-10-22T05:47:54.259Z,1003.3
2022-10-22T05:48:57.602Z,1003.3
2022-10-22T05:50:01.201Z,1003.3
2022-10-22T05:51:03.458Z,1003.3
2022-10-22T05:52:06.240Z,1003.4
2022-10-22T05:53:08.949Z,1003.4
2022-10-22T05:54:12.330Z,1003.4
2022-10-22T05:55:15.819Z,1003.4
2022-10-22T05:56:19.014Z,1003.4
2022-10-22T05:57:21.624Z,1003.4
2022-10-22T05:58:24.446Z,1003.4
2022-10-22T05:59:27.092Z,1003.5
2022-10-22T06:00:30.249Z,1003.5
2022-10-22T06:01:33.690Z,1003.4
2022-10-22T06:02:36.910Z,1003.5
2022-10-22T06:03:40.802Z,1003.5
2022-10-22T06:04:42.954Z,1003.5
2022-10-22T06:05:46.296Z,1003.5
2022-10-22T06:06:49.171Z,1003.5
2022-10-22T06:07:51.632Z,1003.5
2022-10-22T06:08:54.613Z,1003.5
2022-10-22T06:09:58.505Z,1003.5
2022-10-22T06:11:02.634Z,1003.5
2022-10-22T06:12:05.832Z,1003.5
2022-10-22T06:13:09.262Z,1003.5
2022-10-22T06:14:12.415Z,1003.5
2022-10-22T06:15:14.568Z,1003.5
2022-10-22T06:16:17.356Z,1003.5
2022-10-22T06:17:20.628Z,1003.5
2022-10-22T06:18:23.970Z,1003.5
2022-10-22T06:19:26.868Z,1003.5
2022-10-22T06:20:29.932Z,1003.5
2022-10-22T06:21:33.081Z,1003.5
2022-10-22T06:22:35.868Z,1003.5
2022-10-22T06:23:38.393Z,1003.5
2022-10-22T06:24:45.285Z,1003.5
2022-10-22T06:25:48.252Z,1003.5
2022-10-22T06:26:52.050Z,1003.5
2022-10-22T06:27:54.275Z,1003.5
2022-10-22T06:28:57.237Z,1003.5
2022-10-22T06:30:00.687Z,1003.6
2022-10-22T06:31:04.219Z,1003.6
2022-10-22T06:32:07.011Z,1003.6
2022-10-22T06:33:09.781Z,1003.6
2022-10-22T06:34:12.624Z,1003.5
2022-10-22T06:35:15.767Z,1003.5
2022-10-22T06:36:17.924Z,1003.6
2022-10-22T06:37:20.713Z,1003.6
2022-10-22T06:38:23.225Z,1003.6
2022-10-22T06:39:26.330Z,1003.6
2022-10-22T06:40:28.905Z,1003.6
2022-10-22T06:41:32.285Z,1003.7
2022-10-22T06:42:35.526Z,1003.6
2022-10-22T06:43:39.027Z,1003.7
2022-10-22T06:44:42.167Z,1003.7
2022-10-22T06:45:45.125Z,1003.6
2022-10-22T06:46:47.643Z,1003.7
2022-10-22T06:47:50.208Z,1003.7
2022-10-22T06:48:52.911Z,1003.8
2022-10-22T06:49:55.978Z,1003.7
2022-10-22T06:50:58.566Z,1003.8
2022-10-22T06:52:01.081Z,1003.8
2022-10-22T06:53:03.795Z,1003.8
2022-10-22T06:54:06.221Z,1003.8
2022-10-22T06:55:09.216Z,1003.8
2022-10-22T06:56:11.737Z,1003.8
2022-10-22T06:57:14.844Z,1003.8
2022-10-22T06:58:18.393Z,1003.8
2022-10-22T06:59:21.310Z,1003.8
2022-10-22T07:00:25.073Z,1003.8
2022-10-22T07:01:28.333Z,1003.8
2022-10-22T07:02:31.507Z,1003.8
2022-10-22T07:03:34.861Z,1003.8
2022-10-22T07:04:37.649Z,1003.8
2022-10-22T07:05:41.418Z,1003.8
2022-10-22T07:06:44.309Z,1003.8
2022-10-22T07:07:47.312Z,1003.8
2022-10-22T07:08:51.372Z,1003.9
2022-10-22T07:09:55.586Z,1003.9
2022-10-22T07:10:58.108Z,1003.9
2022-10-22T07:12:00.988Z,1003.9
2022-10-22T07:13:04.140Z,1003.9
2022-10-22T07:14:07.916Z,1003.9
2022-10-22T07:15:10.951Z,1003.9
2022-10-22T07:16:13.739Z,1003.9
2022-10-22T07:17:16.245Z,1003.9
2022-10-22T07:18:19.945Z,1003.9
2022-10-22T07:19:23.027Z,1003.9
2022-10-22T07:20:26.108Z,1003.9
2022-10-22T07:21:29.253Z,1003.9
2022-10-22T07:22:32.712Z,1003.9
2022-10-22T07:23:35.106Z,1003.9
2022-10-22T07:24:38.241Z,1003.9
2022-10-22T07:25:40.768Z,1003.9
2022-10-22T07:26:42.705Z,1004
2022-10-22T07:27:45.803Z,1004
2022-10-22T07:28:49.451Z,1004
2022-10-22T07:29:52.968Z,1004
2022-10-22T07:30:56.229Z,1004
2022-10-22T07:31:59.217Z,1004.1
2022-10-22T07:33:02.254Z,1004.1
2022-10-22T07:34:05.408Z,1004.2
2022-10-22T07:35:08.418Z,1004.2
2022-10-22T07:36:11.686Z,1004.3
2022-10-22T07:37:14.394Z,1004.2
2022-10-22T07:38:17.490Z,1004.3
2022-10-22T07:39:21.223Z,1004.4
2022-10-22T07:40:24.028Z,1004.3
2022-10-22T07:41:26.563Z,1004.3
2022-10-22T07:43:33.852Z,1004.4
2022-10-22T07:44:37.243Z,1004.4
2022-10-22T07:45:41.453Z,1004.4
2022-10-22T07:46:48.988Z,1004.4
2022-10-22T07:47:52.444Z,1004.4
2022-10-22T07:48:56.132Z,1004.5
2022-10-22T07:49:59.088Z,1004.4
2022-10-22T07:51:01.383Z,1004.4
2022-10-22T07:52:04.516Z,1004.4
2022-10-22T07:53:07.452Z,1004.4
2022-10-22T07:54:10.203Z,1004.4
2022-10-22T07:55:13.547Z,1004.4
2022-10-22T07:56:16.775Z,1004.5
2022-10-22T07:57:19.614Z,1004.5
2022-10-22T07:58:21.999Z,1004.5
2022-10-22T07:59:25.015Z,1004.5
2022-10-22T08:00:27.948Z,1004.5
2022-10-22T08:01:31.583Z,1004.5
2022-10-22T08:02:35.101Z,1004.5
2022-10-22T08:03:37.312Z,1004.5
2022-10-22T08:04:40.573Z,1004.5
2022-10-22T08:05:43.818Z,1004.5
2022-10-22T08:06:48.077Z,1004.5
2022-10-22T08:07:51.268Z,1004.5
2022-10-22T08:08:54.422Z,1004.5
2022-10-22T08:09:57.704Z,1004.5
2022-10-22T08:11:00.762Z,1004.5
2022-10-22T08:12:03.210Z,1004.5
2022-10-22T08:13:05.929Z,1004.5
2022-10-22T08:14:08.822Z,1004.5
2022-10-22T08:15:11.735Z,1004.5
2022-10-22T08:16:15.178Z,1004.5
2022-10-22T08:17:18.982Z,1004.5
2022-10-22T08:18:22.179Z,1004.5
2022-10-22T08:19:25.249Z,1004.5
2022-10-22T08:20:27.502Z,1004.5
2022-10-22T08:21:30.567Z,1004.6
2022-10-22T08:22:33.208Z,1004.6
2022-10-22T08:23:36.272Z,1004.6
2022-10-22T08:24:39.900Z,1004.6
2022-10-22T08:25:42.608Z,1004.6
2022-10-22T08:26:45.480Z,1004.6
2022-10-22T08:27:49.479Z,1004.6
2022-10-22T08:28:52.859Z,1004.6
2022-10-22T08:29:56.310Z,1004.6
2022-10-22T08:30:59.473Z,1004.6
2022-10-22T08:32:02.974Z,1004.6
2022-10-22T08:33:06.494Z,1004.7
2022-10-22T08:34:09.852Z,1004.6
2022-10-22T08:35:16.910Z,1004.6
2022-10-22T08:36:20.298Z,1004.6
2022-10-22T08:37:23.912Z,1004.6
2022-10-22T08:38:26.570Z,1004.6
2022-10-22T08:39:29.634Z,1004.7
2022-10-22T08:40:32.781Z,1004.6
2022-10-22T08:41:36.233Z,1004.7
2022-10-22T08:42:40.038Z,1004.7
2022-10-22T08:43:44.644Z,1004.7
2022-10-22T08:44:47.978Z,1004.7
2022-10-22T08:45:51.320Z,1004.7
2022-10-22T08:46:54.779Z,1004.7
2022-10-22T08:47:58.126Z,1004.7
2022-10-22T08:49:02.137Z,1004.7
2022-10-22T08:50:05.634Z,1004.7
2022-10-22T08:51:08.508Z,1004.7
2022-10-22T08:52:11.806Z,1004.7
2022-10-22T08:53:13.967Z,1004.7
2022-10-22T08:54:16.479Z,1004.8
2022-10-22T08:55:18.996Z,1004.8
2022-10-22T08:56:21.514Z,1004.8
2022-10-22T08:57:24.954Z,1004.7
2022-10-22T08:58:27.660Z,1004.8
2022-10-22T08:59:29.806Z,1004.8
2022-10-22T09:00:32.628Z,1004.8
2022-10-22T09:01:35.610Z,1004.8
2022-10-22T09:02:38.903Z,1004.7
2022-10-22T09:03:44.641Z,1004.8
2022-10-22T09:04:48.210Z,1004.8
2022-10-22T09:06:55.025Z,1004.8
2022-10-22T09:07:57.905Z,1004.8
2022-10-22T09:09:01.208Z,1004.8
2022-10-22T09:10:04.593Z,1004.8
2022-10-22T09:11:07.582Z,1004.8
2022-10-22T09:12:11.166Z,1004.9
2022-10-22T09:13:21.950Z,1004.9
2022-10-22T09:14:25.379Z,1004.9
2022-10-22T09:15:28.827Z,1004.9
2022-10-22T09:16:31.340Z,1004.9
2022-10-22T09:17:33.586Z,1004.9
2022-10-22T09:18:36.937Z,1005
2022-10-22T09:19:39.898Z,1004.9
2022-10-22T09:20:43.741Z,1004.9
2022-10-22T09:21:46.848Z,1005
2022-10-22T09:22:50.480Z,1004.9
2022-10-22T09:23:53.563Z,1005
2022-10-22T09:24:56.387Z,1005
2022-10-22T09:25:59.904Z,1005
2022-10-22T09:27:03.192Z,1005
2022-10-22T09:28:06.213Z,1005
2022-10-22T09:29:09.644Z,1005
2022-10-22T09:30:13.528Z,1005
2022-10-22T09:31:16.403Z,1005
2022-10-22T09:32:19.470Z,1005
2022-10-22T09:33:24.783Z,1005
2022-10-22T09:34:27.973Z,1005
2022-10-22T09:35:31.387Z,1005
2022-10-22T09:36:34.910Z,1005
2022-10-22T09:37:37.769Z,1005
2022-10-22T09:38:40.495Z,1005
2022-10-22T09:39:43.905Z,1005
2022-10-22T09:40:47.142Z,1005
2022-10-22T09:41:49.920Z,1005
2022-10-22T09:42:52.985Z,1005
2022-10-22T09:43:56.061Z,1005
2022-10-22T09:44:59.210Z,1005
2022-10-22T09:46:02.290Z,1005.1
2022-10-22T09:47:05.088Z,1005
2022-10-22T09:48:08.153Z,1005
2022-10-22T09:49:10.942Z,1005.1
2022-10-22T09:50:13.942Z,1005.1
2022-10-22T09:51:17.328Z,1005.1
2022-10-22T09:52:20.832Z,1005.1
2022-10-22T09:53:24.607Z,1005.1
2022-10-22T09:54:27.697Z,1005.1
2022-10-22T09:55:30.862Z,1005.1
2022-10-22T09:56:33.579Z,1005.1
2022-10-22T09:57:41.009Z,1005.1
2022-10-22T09:58:49.895Z,1005.1
2022-10-22T09:59:53.378Z,1005.1
2022-10-22T10:00:56.847Z,1005.1
2022-10-22T10:02:26.785Z,1005
2022-10-22T10:03:41.711Z,1005.1
2022-10-22T10:04:44.330Z,1005.1
2022-10-22T10:05:47.556Z,1005.1
2022-10-22T10:06:51.103Z,1005.1
2022-10-22T10:07:54.331Z,1005
2022-10-22T10:08:57.320Z,1005
2022-10-22T10:09:59.777Z,1005.1
2022-10-22T10:11:02.680Z,1005.1
2022-10-22T10:12:05.491Z,1005.1
2022-10-22T10:13:07.723Z,1005.1
2022-10-22T10:14:11.111Z,1005.1
2022-10-22T10:15:14.471Z,1005.1
2022-10-22T10:16:17.841Z,1005.1
2022-10-22T10:17:21.257Z,1005.1
2022-10-22T10:18:24.244Z,1005.1
2022-10-22T10:19:27.043Z,1005.1
2022-10-22T10:20:30.388Z,1005.2
2022-10-22T10:21:33.173Z,1005.1
2022-10-22T10:22:36.908Z,1005.1
2022-10-22T10:23:41.456Z,1005.1
2022-10-22T10:24:44.211Z,1005.1
2022-10-22T10:25:47.642Z,1005.1
2022-10-22T10:26:50.441Z,1005.1
2022-10-22T10:27:53.690Z,1005.1
2022-10-22T10:28:56.975Z,1005.1
2022-10-22T10:30:00.321Z,1005.1
2022-10-22T10:31:04.031Z,1005.1
2022-10-22T10:32:07.185Z,1005
2022-10-22T10:33:10.311Z,1005
2022-10-22T10:34:13.437Z,1005
2022-10-22T10:35:16.789Z,1005
2022-10-22T10:36:20.784Z,1005
2022-10-22T10:37:24.512Z,1005
2022-10-22T10:38:30.289Z,1005
2022-10-22T10:39:33.598Z,1005
2022-10-22T10:40:37.093Z,1004.9
2022-10-22T10:41:41.219Z,1004.9
2022-10-22T10:42:44.602Z,1005
2022-10-22T10:43:48.231Z,1004.9
2022-10-22T10:44:51.980Z,1005
2022-10-22T10:45:56.437Z,1005
2022-10-22T10:46:59.791Z,1004.9
2022-10-22T10:48:03.144Z,1004.9
2022-10-22T10:49:05.939Z,1004.9
2022-10-22T10:50:09.385Z,1004.9
2022-10-22T10:51:11.821Z,1005
2022-10-22T10:52:21.404Z,1005
2022-10-22T10:53:25.468Z,1004.9
2022-10-22T10:54:29.377Z,1005
2022-10-22T10:55:33.772Z,1004.9
2022-10-22T10:56:39.599Z,1004.9
2022-10-22T10:57:43.883Z,1004.9
2022-10-22T10:58:47.001Z,1004.9
2022-10-22T10:59:49.515Z,1004.9
2022-10-22T11:00:52.587Z,1004.9
2022-10-22T11:01:56.096Z,1004.9
2022-10-22T11:02:59.424Z,1004.9
2022-10-22T11:04:01.993Z,1004.9
2022-10-22T11:05:05.198Z,1004.9
2022-10-22T11:06:08.809Z,1004.9
2022-10-22T11:07:34.089Z,1005
2022-10-22T11:08:38.046Z,1005
2022-10-22T11:09:42.467Z,1005
2022-10-22T11:10:46.049Z,1005
2022-10-22T11:11:50.346Z,1005
2022-10-22T11:12:53.484Z,1005
2022-10-22T11:13:56.646Z,1004.9
2022-10-22T11:14:59.710Z,1005
2022-10-22T11:16:02.300Z,1005
2022-10-22T11:17:04.732Z,1004.9
2022-10-22T11:18:07.801Z,1004.9
2022-10-22T11:19:18.480Z,1005
2022-10-22T11:21:02.211Z,1005
2022-10-22T11:22:05.598Z,1005
2022-10-22T11:23:25.105Z,1005
2022-10-22T11:24:28.631Z,1005
2022-10-22T11:25:32.082Z,1005
2022-10-22T11:26:35.080Z,1005
2022-10-22T11:27:38.742Z,1004.9
2022-10-22T11:28:42.817Z,1004.9
2022-10-22T11:29:46.169Z,1004.9
2022-10-22T11:30:49.030Z,1004.9
2022-10-22T11:31:52.090Z,1004.9
2022-10-22T11:32:54.674Z,1004.9
2022-10-22T11:34:21.661Z,1005
2022-10-22T11:35:37.493Z,1004.9
2022-10-22T11:36:40.563Z,1004.9
2022-10-22T11:37:44.310Z,1005
2022-10-22T11:38:47.643Z,1004.9
2022-10-22T11:39:50.710Z,1004.9
2022-10-22T11:40:53.879Z,1004.9
2022-10-22T11:41:57.662Z,1004.9
2022-10-22T11:43:00.781Z,1004.9
2022-10-22T11:44:03.286Z,1004.9
2022-10-22T11:45:06.109Z,1004.9
2022-10-22T11:46:08.634Z,1004.9
2022-10-22T11:47:11.431Z,1004.9
2022-10-22T11:48:14.137Z,1004.8
2022-10-22T11:49:17.277Z,1004.8
2022-10-22T11:50:20.265Z,1004.9
2022-10-22T11:51:23.761Z,1004.9
2022-10-22T11:52:26.375Z,1004.9
2022-10-22T11:53:29.552Z,1004.9
2022-10-22T11:54:33.070Z,1004.9
2022-10-22T11:55:35.672Z,1004.9
2022-10-22T11:56:38.479Z,1004.9
2022-10-22T11:57:42.840Z,1004.9
2022-10-22T11:58:50.753Z,1004.9
2022-10-22T11:59:58.543Z,1004.9
2022-10-22T12:01:01.668Z,1004.9
2022-10-22T12:02:04.722Z,1004.8
2022-10-22T12:03:07.025Z,1004.9
2022-10-22T12:04:10.505Z,1004.9
2022-10-22T12:05:13.958Z,1004.9
2022-10-22T12:06:16.957Z,1005
2022-10-22T12:07:20.389Z,1005
2022-10-22T12:08:22.790Z,1004.9
2022-10-22T12:09:25.786Z,1004.9
2022-10-22T12:10:28.645Z,1004.9
2022-10-22T12:11:31.456Z,1005
2022-10-22T12:12:34.833Z,1004.9
2022-10-22T12:13:38.642Z,1004.9
2022-10-22T12:14:41.843Z,1004.9
2022-10-22T12:15:45.498Z,1004.9
2022-10-22T12:16:57.648Z,1004.8
2022-10-22T12:18:00.747Z,1004.9
2022-10-22T12:19:04.250Z,1004.9
2022-10-22T12:20:06.413Z,1004.9
2022-10-22T12:21:09.615Z,1004.9
2022-10-22T12:22:12.964Z,1004.9
2022-10-22T12:23:16.417Z,1004.9
2022-10-22T12:24:19.138Z,1004.9
2022-10-22T12:25:22.522Z,1004.8
2022-10-22T12:26:25.475Z,1004.8
2022-10-22T12:27:29.121Z,1004.9
2022-10-22T12:28:32.207Z,1004.9
2022-10-22T12:29:35.983Z,1004.8
2022-10-22T12:30:38.834Z,1004.9
2022-10-22T12:31:41.903Z,1004.8
2022-10-22T12:32:45.049Z,1004.9
2022-10-22T12:33:48.179Z,1004.9
2022-10-22T12:35:53.522Z,1004.9
2022-10-22T12:36:56.788Z,1004.9
2022-10-22T12:38:00.153Z,1004.9
2022-10-22T12:39:03.230Z,1004.9
2022-10-22T12:40:06.105Z,1004.9
2022-10-22T12:41:09.326Z,1004.9
2022-10-22T12:42:12.115Z,1004.9
2022-10-22T12:43:15.850Z,1005
2022-10-22T12:44:19.735Z,1005
2022-10-22T12:45:23.566Z,1005
2022-10-22T12:46:26.881Z,1004.9
2022-10-22T12:47:30.022Z,1005
2022-10-22T12:48:33.454Z,1005
2022-10-22T12:49:36.242Z,1005
2022-10-22T12:50:39.318Z,1004.9
2022-10-22T12:51:42.481Z,1004.9
2022-10-22T12:52:45.004Z,1004.9
2022-10-22T12:53:47.798Z,1004.9
2022-10-22T12:54:50.396Z,1004.9
2022-10-22T12:55:52.827Z,1004.8
2022-10-22T12:56:55.894Z,1004.9
2022-10-22T12:57:59.338Z,1004.9
2022-10-22T12:59:02.403Z,1004.9
2022-10-22T13:00:05.943Z,1004.9
2022-10-22T13:01:10.321Z,1004.9
2022-10-22T13:02:13.751Z,1004.9
2022-10-22T13:03:17.110Z,1004.9
2022-10-22T13:04:20.471Z,1004.9
2022-10-22T13:05:23.923Z,1004.9
2022-10-22T13:06:26.923Z,1004.9
2022-10-22T13:07:29.448Z,1004.9
2022-10-22T13:08:32.380Z,1005
2022-10-22T13:09:37.009Z,1005
2022-10-22T13:10:40.221Z,1005
2022-10-22T13:11:43.075Z,1005
2022-10-22T13:12:46.742Z,1005
2022-10-22T13:13:49.809Z,1005
2022-10-22T13:14:52.603Z,1004.9
2022-10-22T13:15:56.351Z,1005
2022-10-22T13:17:00.203Z,1005
2022-10-22T13:18:03.439Z,1005
2022-10-22T13:19:06.526Z,1004.9
2022-10-22T13:20:09.519Z,1005
2022-10-22T13:21:12.973Z,1005
2022-10-22T13:22:15.692Z,1005
2022-10-22T13:23:18.406Z,1005